Tallahassee, FL

8:47 AM EDT on July 20, 2017 (GMT -0400)
Hartsfield Elementary School WeatherSTEM | | Change Station

Elev 203 ft 30.43 °N, 84.26 °W | Updated 1 minute ago

Clear
Clear
80.5 °F
Feels Like 87 °F
N
0.0
Wind Variable Wind from NNW

Today
High -- | Low -- °F
--% Chance of Precip.
Yesterday
High -- | Low -- °F
Precip. -- in
Pressure 30.08 in
Visibility 10.0 miles
Clouds Few 25000 ft
Heat Index 87 °F
Dew Point 77 °F
Humidity 88%
Rainfall 0.00 in
Snow Depth Not available.
6:48 AM 8:38 PM
Waning Crescent, 12% visible
METAR KTLH 201153Z 00000KT 10SM FEW250 25/24 A3008 RMK AO2 SLP186 T02500239 10256 20233 51006
Pressure 30.08 in
Visibility 10.0 miles
Clouds Few 25000 ft
Heat Index 87 °F
Dew Point 77 °F
Humidity 88%
Rainfall 0.00 in
Snow Depth Not available.
6:48 AM 8:38 PM
Waning Crescent, 12% visible
METAR KTLH 201153Z 00000KT 10SM FEW250 25/24 A3008 RMK AO2 SLP186 T02500239 10256 20233 51006

Get Severe Weather Alerts

Thanks for signing up!

Be on the lookout for a verification email in your inbox.

You'll start receiving the daily forecast at 6 AM.

×

10-Day Weather Forecast

Almanac

Astronomy

Jul. 20, 2017 Rise Set
Actual Time
Civil Twilight
Nautical Twilight
Astronomical Twilight
Moon
Length of Visible Light
Length of Day
Tomorrow will be .
, % of the Moon is Illuminated

Today's Extremes

State Highs State Lows

Community

WunderPhotos

Category 6

Welcome to Category 6. This is the collective home for Weather Underground's featured writeups by Dr. Jeff Masters (right), Bob Henson (left), Chris Burt, and other regular contributors.

Nearby

Air Quality

  Air Quality AQ Index Pollutant
Not available.

Snow Depth

Station Depth Elevation

Earthquake Activity

City Distance Mag. Time & Date
Minimum magnitude displayed is 2.5.

Coastal Water Temperatures

Place Temperature

Stations

Nearby Weather Stations

Station Location Temp. Windchill Dew Point Humidity Wind Precip. Elev Updated Type
                   

Watches & Warnings

There are currently no watches in effect.